Terminal Aerodrome Forecast
Issued by NWS

Home | Current Version | Previous Version | Text Only | Print | Product List | Glossary On
Versions: 1 2 3 4 5 6 7 8 9 10 11 12 13 14 15 16
000
FTAK31 PAJN 021700
TAFAYA
TAF
PAYA 021737Z 0218/0318 33005KT P6SM -RA SCT025 OVC050
     FM022000 25006KT P6SM VCSH OVC050
     FM030600 VRB03KT P6SM BCFG SCT015 OVC040
     FM031400 VRB03KT P6SM BKN015 OVC040
      AMD LTD TO CLD VIS AND WIND 0301/0310=

USA.gov is the U.S. government's official web portal to all federal, state and local government web resources and services.